createdAt,value
2018-11-10T09:22:58.133Z,2.40
2018-11-10T09:25:26.528Z,2.20
2018-11-10T09:27:54.949Z,2.60
2018-11-10T09:30:23.377Z,2.63
2018-11-10T09:32:51.777Z,2.90
2018-11-10T09:35:20.134Z,3.20
2018-11-10T09:37:48.562Z,2.70
2018-11-10T09:40:17.556Z,2.33
2018-11-10T09:42:46.155Z,1.70
2018-11-10T09:45:15.586Z,1.60
2018-11-10T09:47:43.989Z,1.30
2018-11-10T09:50:14.842Z,1.37
2018-11-10T09:52:44.193Z,2.93
2018-11-10T09:55:12.951Z,1.70
2018-11-10T09:57:41.399Z,1.50
2018-11-10T10:00:13.555Z,1.30
2018-11-10T10:02:42.525Z,1.70
2018-11-10T10:05:11.105Z,1.20
2018-11-10T10:07:40.330Z,1.90
2018-11-10T10:10:10.524Z,1.07
2018-11-10T10:12:38.954Z,1.10
2018-11-10T10:15:09.170Z,1.60
2018-11-10T10:17:37.609Z,1.30
2018-11-10T10:20:08.372Z,0.87
2018-11-10T10:22:36.808Z,1.20
2018-11-10T10:25:06.001Z,1.27
2018-11-10T10:27:34.457Z,1.20
2018-11-10T10:30:02.892Z,1.33
2018-11-10T10:32:31.264Z,1.30
2018-11-10T10:35:01.786Z,1.37
2018-11-10T10:37:36.353Z,1.20
2018-11-10T10:40:14.663Z,0.97
2018-11-10T10:43:17.958Z,1.43
2018-11-10T10:45:46.521Z,1.50
2018-11-10T10:48:14.921Z,1.30
2018-11-10T10:50:43.397Z,2.00
2018-11-10T10:53:12.049Z,2.10
2018-11-10T10:55:40.653Z,1.97
2018-11-10T10:58:09.436Z,1.70
2018-11-10T11:00:43.074Z,1.43
2018-11-10T11:03:16.813Z,1.43
2018-11-10T11:05:50.493Z,1.47
2018-11-10T11:08:18.977Z,1.73
2018-11-10T11:10:47.373Z,2.70
2018-11-10T11:13:15.770Z,1.23
2018-11-10T11:15:44.220Z,1.33
2018-11-10T11:18:12.584Z,0.97
2018-11-10T11:20:41.044Z,1.90
2018-11-10T11:23:09.431Z,0.90
2018-11-10T11:25:37.866Z,1.70
2018-11-10T11:28:06.261Z,1.77
2018-11-10T11:30:34.666Z,1.20
2018-11-10T11:33:03.134Z,0.80
2018-11-10T11:35:31.600Z,1.33
2018-11-10T11:37:59.989Z,1.20
2018-11-10T11:40:28.389Z,1.17
2018-11-10T11:42:56.838Z,1.27
2018-11-10T11:45:25.259Z,1.40
2018-11-10T11:47:53.658Z,0.93
2018-11-10T11:50:22.058Z,0.50
2018-11-10T11:52:50.441Z,0.77
2018-11-10T11:55:18.814Z,1.10
2018-11-10T11:57:47.380Z,1.20
2018-11-10T12:00:17.096Z,1.00
2018-11-10T12:02:46.083Z,1.00
2018-11-10T12:05:15.817Z,0.87
2018-11-10T12:07:44.617Z,0.50
2018-11-10T12:10:14.182Z,0.60
2018-11-10T12:12:42.586Z,0.60
2018-11-10T12:15:12.318Z,0.60
2018-11-10T12:17:40.841Z,0.73
2018-11-10T12:20:10.712Z,0.67
2018-11-10T12:22:39.149Z,0.60
2018-11-10T12:25:08.096Z,0.80
2018-11-10T12:27:36.673Z,0.63
2018-11-10T12:30:05.860Z,1.17
2018-11-10T12:32:34.254Z,0.73
2018-11-10T12:35:02.689Z,0.90
2018-11-10T12:37:31.169Z,0.80
2018-11-10T12:39:59.658Z,0.73
2018-11-10T12:42:28.109Z,0.60
2018-11-10T12:44:56.558Z,0.63
2018-11-10T12:47:25.017Z,0.77
2018-11-10T12:49:53.417Z,0.77
2018-11-10T12:52:21.877Z,1.20
2018-11-10T12:54:50.315Z,1.03
2018-11-10T12:57:18.738Z,0.90
2018-11-10T12:59:47.122Z,0.57
2018-11-10T13:02:15.536Z,0.80
2018-11-10T13:04:43.958Z,1.10
2018-11-10T13:07:12.491Z,1.37
2018-11-10T13:09:40.899Z,0.77
2018-11-10T13:12:09.357Z,0.80
2018-11-10T13:14:37.736Z,0.87
2018-11-10T13:17:06.256Z,0.93
2018-11-10T13:19:34.749Z,0.80
2018-11-10T13:22:03.187Z,0.60
2018-11-10T13:24:31.624Z,0.70
2018-11-10T13:27:00.045Z,0.80
2018-11-10T13:29:28.449Z,0.67
2018-11-10T13:31:56.926Z,0.47
2018-11-10T13:34:25.285Z,0.80
2018-11-10T13:36:53.705Z,0.73
2018-11-10T13:39:22.084Z,0.90
2018-11-10T13:41:51.412Z,0.80
2018-11-10T13:44:20.306Z,0.40
2018-11-10T13:46:49.131Z,0.70
2018-11-10T13:49:17.751Z,0.87
2018-11-10T13:51:46.618Z,0.90
2018-11-10T13:54:15.122Z,0.77
2018-11-10T13:56:45.006Z,0.87
2018-11-10T13:59:13.899Z,0.70
2018-11-10T14:01:42.570Z,0.60
2018-11-10T14:04:11.583Z,0.50
2018-11-10T14:06:40.483Z,0.60
2018-11-10T14:09:11.357Z,0.83
2018-11-10T14:11:40.671Z,0.60
2018-11-10T14:32:10.275Z,0.60
2018-11-10T14:34:39.844Z,0.60
2018-11-10T14:37:08.677Z,0.70
2018-11-10T14:39:37.596Z,0.63
2018-11-10T14:42:06.635Z,0.60
2018-11-10T14:44:35.399Z,0.70
2018-11-10T14:47:04.356Z,0.80
2018-11-10T14:49:32.823Z,0.67
2018-11-10T14:52:01.238Z,0.57
2018-11-10T14:54:29.693Z,0.83
2018-11-10T14:56:58.152Z,0.70
2018-11-10T14:59:26.529Z,0.77
2018-11-10T15:01:54.993Z,0.80
2018-11-10T15:04:23.411Z,0.80
2018-11-10T15:06:51.841Z,0.80
2018-11-10T15:09:21.143Z,0.70
2018-11-10T15:11:50.111Z,0.73
2018-11-10T15:14:18.445Z,0.80
2018-11-10T15:16:47.558Z,0.90
2018-11-10T15:19:16.170Z,1.00
2018-11-10T15:21:44.917Z,1.20
2018-11-10T15:24:13.610Z,2.63
2018-11-10T15:26:42.402Z,1.43
2018-11-10T15:29:11.086Z,3.27
2018-11-10T15:31:39.858Z,1.27
2018-11-10T15:34:08.546Z,0.70
2018-11-10T15:36:37.254Z,1.00
2018-11-10T15:39:07.655Z,0.70
2018-11-10T15:41:36.302Z,1.10
2018-11-10T15:44:04.709Z,1.00
2018-11-10T15:46:34.285Z,1.00
2018-11-10T15:49:03.020Z,0.77
2018-11-10T15:51:31.763Z,1.00
2018-11-10T15:54:00.346Z,1.23
2018-11-10T15:56:28.990Z,1.33
2018-11-10T15:58:57.670Z,1.00
2018-11-10T16:01:26.798Z,1.20
2018-11-10T16:03:55.455Z,0.83
2018-11-10T16:06:23.893Z,4.40
2018-11-10T16:08:53.638Z,1.30
2018-11-10T16:11:22.437Z,3.20
2018-11-10T16:13:51.246Z,1.30
2018-11-10T16:16:19.703Z,0.80
2018-11-10T16:18:48.577Z,1.60
2018-11-10T16:21:17.122Z,1.30
2018-11-10T16:23:45.525Z,1.60
2018-11-10T16:26:13.897Z,1.27
2018-11-10T16:28:42.363Z,1.50
2018-11-10T16:31:11.031Z,2.23
2018-11-10T16:33:39.463Z,1.17
2018-11-10T16:36:07.854Z,1.57
2018-11-10T16:38:36.361Z,1.90
2018-11-10T16:41:05.130Z,1.87
2018-11-10T16:43:33.565Z,1.43
2018-11-10T16:46:01.980Z,2.43
2018-11-10T16:48:30.399Z,1.47
2018-11-10T16:50:58.905Z,1.43
2018-11-10T16:53:27.746Z,1.37
2018-11-10T16:55:56.116Z,2.43
2018-11-10T16:58:24.534Z,2.20
2018-11-10T17:00:52.898Z,2.27
2018-11-10T17:03:21.346Z,1.00
2018-11-10T17:05:49.741Z,1.57
2018-11-10T17:08:18.208Z,1.37
2018-11-10T17:10:46.649Z,1.43
2018-11-10T17:13:15.086Z,1.00
2018-11-10T17:15:43.569Z,1.33
2018-11-10T17:18:12.080Z,1.13
2018-11-10T17:20:40.463Z,1.17
2018-11-10T17:23:08.885Z,0.97
2018-11-10T17:25:37.382Z,1.03
2018-11-10T17:28:06.082Z,1.10
2018-11-10T17:30:34.491Z,1.30
2018-11-10T17:33:04.044Z,2.20
2018-11-10T17:35:32.647Z,2.07
2018-11-10T17:38:01.464Z,3.00
2018-11-10T17:40:29.838Z,2.50
2018-11-10T17:42:58.259Z,1.40
2018-11-10T17:45:26.653Z,1.10
2018-11-10T17:47:55.062Z,1.30
2018-11-10T17:50:23.482Z,1.40
2018-11-10T17:52:52.034Z,1.70
2018-11-10T17:55:23.599Z,2.30
2018-11-10T17:57:52.239Z,2.60
2018-11-10T18:00:20.858Z,2.50
2018-11-10T18:02:49.617Z,1.43
2018-11-10T18:05:18.349Z,1.37
2018-11-10T18:07:47.121Z,1.50
2018-11-10T18:10:17.065Z,1.90
2018-11-10T18:12:46.208Z,2.40
2018-11-10T18:15:16.328Z,2.50
2018-11-10T18:17:45.024Z,2.50
2018-11-10T18:20:14.692Z,2.50
2018-11-10T18:22:43.505Z,1.97
2018-11-10T18:25:13.056Z,2.00
2018-11-10T18:27:41.710Z,2.57
2018-11-10T18:30:12.218Z,2.53
2018-11-10T18:32:43.714Z,2.50
2018-11-10T18:35:12.761Z,2.90
2018-11-10T18:37:42.261Z,2.80
2018-11-10T18:40:12.058Z,2.93
2018-11-10T18:42:40.621Z,2.90
2018-11-10T18:45:10.434Z,3.23
2018-11-10T18:47:40.517Z,2.70
2018-11-10T18:50:12.120Z,3.17
2018-11-10T18:52:40.617Z,3.33
2018-11-10T18:55:09.610Z,4.10
2018-11-10T18:57:46.271Z,4.53
2018-11-10T19:00:16.091Z,4.00
2018-11-10T19:02:44.538Z,3.93
2018-11-10T19:05:14.377Z,3.90
2018-11-10T19:07:42.793Z,3.77
2018-11-10T19:10:13.744Z,3.77
2018-11-10T19:12:42.702Z,3.87
2018-11-10T19:15:13.618Z,3.70
2018-11-10T19:17:42.053Z,3.80
2018-11-10T19:20:11.193Z,4.07
2018-11-10T19:22:39.886Z,4.10
2018-11-10T19:25:09.865Z,4.53
2018-11-10T19:27:38.821Z,5.00
2018-11-10T19:30:11.417Z,4.40
2018-11-10T19:32:39.854Z,4.93
2018-11-10T19:35:09.247Z,4.63
2018-11-10T19:37:38.699Z,4.97
2018-11-10T19:40:07.926Z,4.93
2018-11-10T19:42:36.327Z,5.27
2018-11-10T19:45:05.719Z,4.67
2018-11-10T19:47:34.131Z,4.23
2018-11-10T19:50:02.608Z,4.47
2018-11-10T19:52:30.998Z,4.17
2018-11-10T19:54:59.405Z,4.13
2018-11-10T19:57:27.849Z,3.50
2018-11-10T19:59:56.274Z,2.97
2018-11-10T20:02:24.745Z,3.63
2018-11-10T20:04:53.239Z,3.90
2018-11-10T20:07:21.679Z,3.60
2018-11-10T20:09:50.109Z,5.50
2018-11-10T20:12:18.529Z,5.97
2018-11-10T20:14:46.992Z,3.50
2018-11-10T20:17:15.414Z,2.90
2018-11-10T20:19:43.965Z,2.80
2018-11-10T20:22:12.280Z,2.90
2018-11-10T20:24:40.721Z,2.23
2018-11-10T20:27:09.158Z,2.30
2018-11-10T20:29:37.581Z,2.60
2018-11-10T20:32:06.024Z,2.77
2018-11-10T20:34:34.456Z,2.07
2018-11-10T20:37:02.882Z,2.03
2018-11-10T20:39:31.293Z,2.40
2018-11-10T20:41:59.754Z,2.17
2018-11-10T20:44:28.398Z,2.10
2018-11-10T20:46:56.937Z,2.30
2018-11-10T20:49:25.389Z,2.17
2018-11-10T20:51:53.806Z,2.10
2018-11-10T20:54:22.281Z,2.50
2018-11-10T20:56:51.004Z,2.10
2018-11-10T20:59:19.717Z,2.60
2018-11-10T21:01:48.373Z,2.67
2018-11-10T21:04:17.021Z,2.60
2018-11-10T21:06:45.576Z,2.27
2018-11-10T21:09:13.990Z,2.27
2018-11-10T21:11:42.381Z,1.60
2018-11-10T21:14:11.358Z,1.60
2018-11-10T21:16:39.747Z,1.57
2018-11-10T21:19:08.432Z,1.60
2018-11-10T21:21:36.842Z,1.70
2018-11-10T21:24:05.495Z,1.60
2018-11-10T21:26:33.939Z,1.40
2018-11-10T21:29:02.406Z,1.43
2018-11-10T21:31:31.157Z,1.30
2018-11-10T21:33:59.846Z,1.20
2018-11-10T21:36:28.486Z,1.30
2018-11-10T21:38:56.959Z,1.40
2018-11-10T21:41:30.886Z,1.50
2018-11-10T21:43:59.471Z,1.70
2018-11-10T21:46:27.970Z,1.70
2018-11-10T21:48:56.677Z,2.23
2018-11-10T21:51:25.599Z,1.90
2018-11-10T21:53:54.037Z,1.90
2018-11-10T21:56:22.582Z,1.77
2018-11-10T21:58:51.221Z,1.80
2018-11-10T22:01:19.821Z,1.60
2018-11-10T22:03:48.462Z,1.67
2018-11-10T22:06:17.133Z,1.60
2018-11-10T22:08:46.339Z,1.40
2018-11-10T22:11:14.908Z,1.53
2018-11-10T22:13:47.075Z,2.70
2018-11-10T22:16:16.090Z,2.40
2018-11-10T22:18:44.885Z,1.60
2018-11-10T22:21:13.618Z,1.77
2018-11-10T22:23:42.200Z,1.47
2018-11-10T22:26:10.816Z,1.40
2018-11-10T22:28:39.317Z,1.70
2018-11-10T22:31:07.816Z,1.57
2018-11-10T22:33:36.246Z,1.43
2018-11-10T22:36:04.677Z,1.50
2018-11-10T22:38:33.068Z,1.77
2018-11-10T22:41:01.504Z,1.50
2018-11-10T22:43:30.114Z,1.67
2018-11-10T22:45:58.802Z,1.60
2018-11-10T22:48:27.394Z,2.00
2018-11-10T22:50:56.019Z,1.80
2018-11-10T22:53:24.493Z,1.70
2018-11-10T23:02:51.737Z,2.50
2018-11-10T23:05:21.375Z,2.20
2018-11-10T23:07:49.833Z,1.80
2018-11-10T23:10:18.603Z,1.70
2018-11-10T23:12:47.902Z,2.00
2018-11-10T23:15:16.321Z,1.70
2018-11-10T23:17:45.210Z,1.90
2018-11-10T23:20:15.273Z,1.80
2018-11-10T23:22:43.889Z,2.50
2018-11-10T23:25:13.653Z,2.20
2018-11-10T23:27:42.070Z,2.00
2018-11-10T23:30:13.041Z,2.13
2018-11-10T23:32:41.805Z,2.00
2018-11-10T23:35:11.022Z,1.73
2018-11-10T23:37:39.833Z,2.33
2018-11-10T23:40:10.023Z,1.90
2018-11-10T23:42:38.527Z,1.77
2018-11-10T23:45:07.731Z,1.87
2018-11-10T23:47:36.496Z,1.90
2018-11-10T23:50:05.144Z,1.73
2018-11-10T23:52:33.569Z,1.80
2018-11-10T23:55:01.951Z,1.63
2018-11-10T23:57:30.365Z,1.83
2018-11-10T23:59:58.722Z,2.00
